Airfield :
LOGIN :

Register | Disclaimer

   EN    FR    IT 

 










Legend :    VFR   Marginal VFR   IFR   Intensive IFR   Very Intensive IFR
Visi :
Ceiling :
>= 8 km
>= 3000ft
5 to 8 km
1000 to 3000 ft
1500m to 5 km
500 to 1000 ft
800 to 1500m
200 to 500 ft
< 800m
< 200 ft
Symbols :   Thunderstorms  Fog  Heavy snow  Heavy precipitations  Wind > 20 kt
SIGMETs :     Misc.  Thunderstorms  Icing  Turbulence  Mountain Waves  Volcanic Ashes







- Airport Elevation : 90 ft
- IATA code : NTE
- Download approach charts


LFRS - Nantes

CURRENT METAR :
  • 301400Z AUTO 17012KT CAVOK 23/10 Q1017 NOSIG

EXPIRED METARs :
  • 301330Z AUTO 17011KT 9999 FEW012 23/09 Q1018 NOSIG
  • 301300Z AUTO 17012KT 120V200 9999 NSC 23/08 Q1018 NOSIG
  • 301230Z AUTO 17012KT 9999 NSC 23/09 Q1018 NOSIG
  • 301200Z AUTO 19012KT 9999 NSC 22/08 Q1019 NOSIG
  • 301130Z AUTO 17010KT 140V200 9999 NSC 22/09 Q1019 NOSIG

TAF TAF LFRS
Valid from the 30 at 12:00 until the 31 at 18:00 UTC


301100Z 3012/3118 16010KT CAVOK
BECMG 3022/3024 VRB02KT
BECMG 3102/3104 BKN014
TEMPO 3105/3110 4000 -RADZ BKN006
BECMG 3110/3112 24010KT BKN020
ATIS : +33 2 40 05 12 74
No reported NOTAMs for that airfield.



MET'MAP, your aeronautical weather chart ! - Copyright ORBIFLY December 2007 - Disclaimer

ORBIFLY MET'MAP TEAM :

Programming & Development : Alexandra Zaïnal
Concept & Development : Baudouin d'Aumeries
Co-Development & Prog : Marc-Olivier Méhu
Technical & hardware support : Manuel Goepfert

Contact : metmap@orbifly.com




SOURCES & CREDITS :

   NOAA